createdAt,value
2022-12-18T00:01:36.082Z,-3.40
2022-12-18T00:04:07.243Z,-3.40
2022-12-18T00:06:36.238Z,-3.30
2022-12-18T00:09:04.400Z,-3.30
2022-12-18T00:11:33.446Z,-3.30
2022-12-18T00:14:01.197Z,-3.30
2022-12-18T00:16:31.064Z,-3.00
2022-12-18T00:18:59.616Z,-3.10
2022-12-18T00:21:33.492Z,-3.20
2022-12-18T00:24:03.843Z,-3.20
2022-12-18T00:26:33.068Z,-3.20
2022-12-18T00:29:12.556Z,-3.20
2022-12-18T00:31:41.057Z,-3.20
2022-12-18T00:34:07.903Z,-3.20
2022-12-18T00:36:37.141Z,-3.20
2022-12-18T00:39:05.674Z,-3.20
2022-12-18T00:42:07.980Z,-3.20
2022-12-18T00:44:42.606Z,-3.20
2022-12-18T00:47:09.458Z,-3.20
2022-12-18T00:49:38.528Z,-3.10
2022-12-18T00:52:07.422Z,-3.10
2022-12-18T00:54:35.525Z,-3.10
2022-12-18T00:57:05.345Z,-3.10
2022-12-18T00:59:32.261Z,-3.10
2022-12-18T01:02:01.334Z,-3.10
2022-12-18T01:04:34.823Z,-3.10
2022-12-18T01:07:01.615Z,-3.10
2022-12-18T01:09:30.066Z,-3.10
2022-12-18T01:12:04.102Z,-3.10
2022-12-18T01:14:30.859Z,-3.00
2022-12-18T01:16:59.842Z,-3.10
2022-12-18T01:19:27.932Z,-3.10
2022-12-18T01:21:54.876Z,-3.00
2022-12-18T01:24:22.121Z,-3.00
2022-12-18T01:26:49.073Z,-3.00
2022-12-18T01:29:17.127Z,-3.10
2022-12-18T01:31:51.055Z,-3.00
2022-12-18T01:34:20.028Z,-3.00
2022-12-18T01:36:53.893Z,-3.00
2022-12-18T01:39:20.802Z,-3.00
2022-12-18T01:42:03.131Z,-3.00
2022-12-18T01:44:59.919Z,-3.00
2022-12-18T01:47:31.589Z,-3.00
2022-12-18T01:50:12.253Z,-3.00
2022-12-18T01:52:47.775Z,-3.10
2022-12-18T01:55:24.259Z,-3.10
2022-12-18T01:58:01.537Z,-3.10
2022-12-18T02:00:29.673Z,-3.10
2022-12-18T02:02:57.852Z,-3.10
2022-12-18T02:05:59.708Z,-3.20
2022-12-18T02:08:36.522Z,-3.20
2022-12-18T02:11:23.036Z,-3.20
2022-12-18T02:14:23.911Z,-3.20
2022-12-18T02:17:09.617Z,-3.20
2022-12-18T02:19:46.314Z,-3.30
2022-12-18T02:22:46.362Z,-3.30
2022-12-18T02:25:19.266Z,-3.30
2022-12-18T02:27:53.526Z,-3.30
2022-12-18T02:30:23.634Z,-3.30
2022-12-18T02:32:54.086Z,-3.30
2022-12-18T02:35:28.689Z,-3.40
2022-12-18T02:37:58.930Z,-3.40
2022-12-18T02:40:32.136Z,-3.40
2022-12-18T02:43:10.629Z,-3.40
2022-12-18T02:45:47.680Z,-3.40
2022-12-18T02:48:19.208Z,-3.40
2022-12-18T02:51:24.829Z,-3.40
2022-12-18T02:53:59.830Z,-3.30
2022-12-18T02:56:35.057Z,-3.30
2022-12-18T02:59:34.874Z,-3.30
2022-12-18T03:02:17.928Z,-3.30
2022-12-18T03:05:10.625Z,-3.30
2022-12-18T03:07:53.759Z,-3.30
2022-12-18T03:10:30.188Z,-3.40
2022-12-18T03:13:10.502Z,-3.40
2022-12-18T03:15:48.868Z,-3.40
2022-12-18T03:18:27.714Z,-3.40
2022-12-18T03:20:59.358Z,-3.40
2022-12-18T03:23:33.625Z,-3.40
2022-12-18T03:26:08.734Z,-3.40
2022-12-18T03:28:45.233Z,-3.40
2022-12-18T03:31:14.968Z,-3.40
2022-12-18T03:33:54.940Z,-3.40
2022-12-18T03:36:28.074Z,-3.40
2022-12-18T03:38:57.111Z,-3.40
2022-12-18T03:41:32.108Z,-3.40
2022-12-18T03:44:14.397Z,-3.40
2022-12-18T03:46:56.397Z,-3.40
2022-12-18T03:49:49.434Z,-3.40
2022-12-18T03:52:31.883Z,-3.40
2022-12-18T03:55:02.513Z,-3.40
2022-12-18T03:57:32.485Z,-3.50
2022-12-18T04:00:10.578Z,-3.40
2022-12-18T04:02:42.102Z,-3.50
2022-12-18T04:05:16.682Z,-3.50
2022-12-18T04:07:46.032Z,-3.40
2022-12-18T04:10:19.881Z,-3.40
2022-12-18T04:12:46.754Z,-3.40
2022-12-18T04:15:17.766Z,-3.50
2022-12-18T04:17:50.728Z,-3.50
2022-12-18T04:20:19.531Z,-3.50
2022-12-18T04:22:49.505Z,-3.50
2022-12-18T04:25:16.455Z,-3.50
2022-12-18T04:27:53.881Z,-3.50
2022-12-18T04:30:20.603Z,-3.50
2022-12-18T04:32:52.056Z,-3.50
2022-12-18T04:35:22.397Z,-3.50
2022-12-18T04:37:51.558Z,-3.50
2022-12-18T04:40:25.739Z,-3.50
2022-12-18T04:42:52.600Z,-3.50
2022-12-18T04:45:22.825Z,-3.50
2022-12-18T04:48:06.895Z,-3.50
2022-12-18T04:50:37.063Z,-3.50
2022-12-18T04:53:16.137Z,-3.60
2022-12-18T04:55:48.802Z,-3.60
2022-12-18T04:58:15.985Z,-3.60
2022-12-18T05:00:49.328Z,-3.60
2022-12-18T05:03:16.105Z,-3.60
2022-12-18T05:05:46.008Z,-3.60
2022-12-18T05:08:12.996Z,-3.70
2022-12-18T05:10:42.003Z,-3.70
2022-12-18T05:13:11.480Z,-3.70
2022-12-18T05:15:39.368Z,-3.70
2022-12-18T05:18:09.309Z,-3.70
2022-12-18T05:20:39.182Z,-3.70
2022-12-18T05:23:09.174Z,-3.70
2022-12-18T05:25:39.030Z,-3.70
2022-12-18T05:28:08.116Z,-3.70
2022-12-18T05:30:35.422Z,-3.70
2022-12-18T05:33:02.272Z,-3.70
2022-12-18T05:35:29.189Z,-3.80
2022-12-18T05:38:03.844Z,-3.80
2022-12-18T05:40:30.911Z,-3.80
2022-12-18T05:43:00.598Z,-3.70
2022-12-18T05:45:30.128Z,-3.80
2022-12-18T05:48:04.258Z,-3.80
2022-12-18T05:50:31.178Z,-3.80
2022-12-18T05:52:58.018Z,-3.70
2022-12-18T05:55:27.948Z,-3.80
2022-12-18T05:57:55.709Z,-3.80
2022-12-18T06:00:28.738Z,-3.80
2022-12-18T06:02:55.817Z,-3.80
2022-12-18T06:05:26.222Z,-3.80
2022-12-18T06:07:53.000Z,-3.80
2022-12-18T06:10:20.742Z,-3.80
2022-12-18T06:12:50.838Z,-3.80
2022-12-18T06:15:19.890Z,-3.80
2022-12-18T06:17:48.994Z,-3.80
2022-12-18T06:20:19.404Z,-3.80
2022-12-18T06:22:49.493Z,-3.80
2022-12-18T06:25:16.535Z,-3.80
2022-12-18T06:27:45.446Z,-3.70
2022-12-18T06:30:19.603Z,-3.70
2022-12-18T06:32:50.512Z,-3.70
2022-12-18T06:35:36.380Z,-3.70
2022-12-18T06:38:05.644Z,-3.70
2022-12-18T06:40:32.699Z,-3.80
2022-12-18T06:43:01.583Z,-3.80
2022-12-18T06:45:31.955Z,-3.80
2022-12-18T06:47:58.943Z,-3.80
2022-12-18T06:50:26.265Z,-3.70
2022-12-18T06:52:59.148Z,-3.80
2022-12-18T06:55:38.193Z,-3.70
2022-12-18T06:58:11.416Z,-3.80
2022-12-18T07:00:47.632Z,-3.80
2022-12-18T07:03:16.529Z,-3.90
2022-12-18T07:05:43.279Z,-3.90
2022-12-18T07:08:10.108Z,-3.90
2022-12-18T07:10:47.461Z,-3.90
2022-12-18T07:13:17.186Z,-3.90
2022-12-18T07:15:44.943Z,-3.90
2022-12-18T07:18:14.356Z,-3.90
2022-12-18T07:20:42.076Z,-3.90
2022-12-18T07:23:08.828Z,-3.90
2022-12-18T07:25:38.467Z,-3.90
2022-12-18T07:28:05.556Z,-3.80
2022-12-18T07:30:32.410Z,-3.80
2022-12-18T07:33:00.325Z,-3.80
2022-12-18T07:35:27.124Z,-3.80
2022-12-18T07:37:53.888Z,-3.80
2022-12-18T07:40:20.699Z,-3.70
2022-12-18T07:42:47.408Z,-3.70
2022-12-18T07:45:15.578Z,-3.70
2022-12-18T07:47:43.648Z,-3.70
2022-12-18T07:50:16.588Z,-3.70
2022-12-18T07:52:43.355Z,-3.60
2022-12-18T07:55:10.166Z,-3.60
2022-12-18T07:57:56.415Z,-3.60
2022-12-18T08:00:24.152Z,-3.60
2022-12-18T08:02:52.082Z,-3.60
2022-12-18T08:05:21.641Z,-3.60
2022-12-18T08:07:48.497Z,-3.60
2022-12-18T08:10:15.470Z,-3.60
2022-12-18T08:12:42.255Z,-3.70
2022-12-18T08:15:09.731Z,-3.60
2022-12-18T08:17:36.783Z,-3.50
2022-12-18T08:20:03.929Z,-3.50
2022-12-18T08:22:31.172Z,-3.50
2022-12-18T08:25:00.052Z,-3.50
2022-12-18T08:27:30.467Z,-3.60
2022-12-18T08:29:58.387Z,-3.60
2022-12-18T08:32:26.658Z,-3.60
2022-12-18T08:34:53.586Z,-3.60
2022-12-18T08:37:20.587Z,-3.60
2022-12-18T08:39:47.323Z,-3.60
2022-12-18T08:42:32.448Z,-3.60
2022-12-18T08:44:59.528Z,-3.60
2022-12-18T08:47:27.525Z,-3.60
2022-12-18T08:49:54.363Z,-3.50
2022-12-18T08:52:21.215Z,-3.50
2022-12-18T08:54:47.965Z,-3.40
2022-12-18T08:57:14.805Z,-3.40
2022-12-18T08:59:41.591Z,-3.30
2022-12-18T09:02:11.710Z,-3.30
2022-12-18T09:04:38.866Z,-3.20
2022-12-18T09:07:05.605Z,-3.10
2022-12-18T09:09:32.479Z,-3.10
2022-12-18T09:11:59.224Z,-3.00
2022-12-18T09:14:25.979Z,-3.00
2022-12-18T09:16:52.823Z,-2.90
2022-12-18T09:19:19.596Z,-2.80
2022-12-18T09:21:48.220Z,-2.80
2022-12-18T09:24:15.991Z,-2.70
2022-12-18T09:26:45.208Z,-2.70
2022-12-18T09:29:14.287Z,-2.70
2022-12-18T09:31:49.037Z,-2.70
2022-12-18T09:34:16.312Z,-2.70
2022-12-18T09:36:43.327Z,-2.70
2022-12-18T09:39:10.518Z,-2.60
2022-12-18T09:41:43.105Z,-2.60
2022-12-18T09:44:45.315Z,-2.60
2022-12-18T09:47:36.694Z,-2.60
2022-12-18T09:50:17.444Z,-2.60
2022-12-18T09:52:53.449Z,-2.60
2022-12-18T09:55:26.418Z,-2.60
2022-12-18T09:58:08.569Z,-2.50
2022-12-18T10:00:35.989Z,-2.50
2022-12-18T10:03:11.955Z,-2.60
2022-12-18T10:05:53.875Z,-2.50
2022-12-18T10:08:33.964Z,-2.50
2022-12-18T10:11:35.504Z,-2.40
2022-12-18T10:14:29.463Z,-2.30
2022-12-18T10:17:14.522Z,-2.20
2022-12-18T10:19:51.066Z,-2.20
2022-12-18T10:22:29.431Z,-2.20
2022-12-18T10:25:17.912Z,-2.20
2022-12-18T10:27:44.858Z,-2.20
2022-12-18T10:30:20.499Z,-2.30
2022-12-18T10:32:48.164Z,-2.40
2022-12-18T10:35:27.803Z,-2.50
2022-12-18T10:38:13.320Z,-2.60
2022-12-18T10:41:18.403Z,-2.60
2022-12-18T10:43:45.283Z,-2.60
2022-12-18T10:46:11.975Z,-2.60
2022-12-18T10:48:49.176Z,-2.50
2022-12-18T10:51:30.306Z,-2.50
2022-12-18T10:54:00.740Z,-2.60
2022-12-18T10:56:31.062Z,-2.60
2022-12-18T10:59:01.425Z,-2.60
2022-12-18T11:01:29.520Z,-2.70
2022-12-18T11:04:02.080Z,-2.70
2022-12-18T11:06:30.618Z,-2.70
2022-12-18T11:09:20.579Z,-2.60
2022-12-18T11:11:56.366Z,-2.50
2022-12-18T11:14:25.891Z,-2.50
2022-12-18T11:17:26.259Z,-2.50
2022-12-18T11:19:43.688Z,-2.40
2022-12-18T11:22:25.318Z,-2.30
2022-12-18T11:28:27.870Z,-2.20
2022-12-18T11:31:20.893Z,-2.20
2022-12-18T11:34:19.827Z,-2.20
2022-12-18T11:36:45.629Z,-2.30
2022-12-18T11:39:26.159Z,-2.40
2022-12-18T11:42:12.877Z,-2.50
2022-12-18T11:44:52.439Z,-2.60
2022-12-18T11:47:49.099Z,-2.60
2022-12-18T11:50:26.039Z,-2.70
2022-12-18T11:52:58.178Z,-2.80
2022-12-18T11:55:45.020Z,-2.80
2022-12-18T11:58:53.853Z,-2.80
2022-12-18T12:01:25.011Z,-2.70
2022-12-18T12:04:19.924Z,-2.70
2022-12-18T12:07:24.410Z,-2.70
2022-12-18T12:10:28.899Z,-2.70
2022-12-18T12:13:35.502Z,-2.60
2022-12-18T12:16:27.763Z,-2.60
2022-12-18T12:19:11.490Z,-2.50
2022-12-18T12:21:43.256Z,-2.50
2022-12-18T12:24:19.092Z,-2.50
2022-12-18T12:27:06.037Z,-2.60
2022-12-18T12:29:52.867Z,-2.50
2022-12-18T12:32:44.064Z,-2.50
2022-12-18T12:35:26.162Z,-2.40
2022-12-18T12:38:01.220Z,-2.40
2022-12-18T12:43:27.761Z,-2.30
2022-12-18T12:46:03.758Z,-2.40
2022-12-18T12:48:34.108Z,-2.30
2022-12-18T12:51:07.873Z,-2.40
2022-12-18T12:53:38.558Z,-2.40
2022-12-18T12:56:08.393Z,-2.40
2022-12-18T12:58:47.727Z,-2.40
2022-12-18T13:01:35.109Z,-2.40
2022-12-18T13:04:14.229Z,-2.40
2022-12-18T13:06:54.513Z,-2.30
2022-12-18T13:09:21.435Z,-2.30
2022-12-18T13:12:07.678Z,-2.30
2022-12-18T13:14:40.305Z,-2.30
2022-12-18T13:17:18.539Z,-2.40
2022-12-18T13:19:46.463Z,-2.40
2022-12-18T13:22:25.162Z,-2.50
2022-12-18T13:24:52.349Z,-2.50
2022-12-18T13:28:07.200Z,-2.50
2022-12-18T13:30:34.293Z,-2.50
2022-12-18T13:33:20.866Z,-2.60
2022-12-18T13:35:47.953Z,-2.60
2022-12-18T13:38:32.440Z,-2.60
2022-12-18T13:41:22.374Z,-2.70
2022-12-18T13:44:12.034Z,-2.70
2022-12-18T13:46:51.015Z,-2.70
2022-12-18T13:49:17.723Z,-2.80
2022-12-18T13:51:49.950Z,-2.80
2022-12-18T13:54:52.288Z,-2.80
2022-12-18T13:57:33.965Z,-2.80
2022-12-18T14:00:20.725Z,-2.90
2022-12-18T14:02:47.647Z,-2.90
2022-12-18T14:05:27.148Z,-2.90
2022-12-18T14:07:55.576Z,-2.90
2022-12-18T14:13:17.394Z,-3.00
2022-12-18T14:15:48.989Z,-3.00
2022-12-18T14:18:15.738Z,-3.00
2022-12-18T14:20:52.857Z,-3.00
2022-12-18T14:23:38.509Z,-3.00
2022-12-18T14:26:29.997Z,-3.00
2022-12-18T14:29:02.344Z,-3.10
2022-12-18T14:31:31.681Z,-3.10
2022-12-18T14:33:58.684Z,-3.10
2022-12-18T14:36:28.545Z,-3.10
2022-12-18T14:38:59.898Z,-3.10
2022-12-18T14:41:27.484Z,-3.20
2022-12-18T14:43:55.518Z,-3.20
2022-12-18T14:46:44.486Z,-3.20
2022-12-18T14:49:34.978Z,-3.20
2022-12-18T14:52:07.217Z,-3.30
2022-12-18T14:54:38.173Z,-3.30
2022-12-18T14:57:22.956Z,-3.30
2022-12-18T14:59:50.147Z,-3.30
2022-12-18T15:02:26.314Z,-3.30
2022-12-18T15:05:12.622Z,-3.30
2022-12-18T15:07:53.757Z,-3.30
2022-12-18T15:10:22.145Z,-3.30
2022-12-18T15:13:08.639Z,-3.30
2022-12-18T15:15:38.648Z,-3.40
2022-12-18T15:18:07.859Z,-3.40
2022-12-18T15:20:49.290Z,-3.40
2022-12-18T15:23:26.928Z,-3.50
2022-12-18T15:26:04.277Z,-3.50
2022-12-18T15:28:47.273Z,-3.50
2022-12-18T15:31:14.098Z,-3.60
2022-12-18T15:34:00.561Z,-3.60
2022-12-18T15:36:27.655Z,-3.60
2022-12-18T15:39:04.939Z,-3.60
2022-12-18T15:41:36.920Z,-3.70
2022-12-18T15:44:16.667Z,-3.70
2022-12-18T15:46:43.428Z,-3.70
2022-12-18T15:49:10.380Z,-3.80
2022-12-18T15:51:39.780Z,-3.80
2022-12-18T15:54:13.019Z,-3.80
2022-12-18T15:56:58.443Z,-3.80
2022-12-18T15:59:25.462Z,-3.80
2022-12-18T16:01:54.225Z,-3.80
2022-12-18T16:04:22.875Z,-3.90
2022-12-18T16:07:14.891Z,-3.80
2022-12-18T16:09:39.723Z,-3.80
2022-12-18T16:12:08.087Z,-3.80
2022-12-18T16:14:34.896Z,-3.80
2022-12-18T16:17:04.316Z,-3.80
2022-12-18T16:19:31.548Z,-3.80
2022-12-18T16:21:59.538Z,-3.90
2022-12-18T16:24:31.592Z,-3.90
2022-12-18T16:27:00.367Z,-3.90
2022-12-18T16:29:29.353Z,-4.00
2022-12-18T16:32:00.156Z,-4.00
2022-12-18T16:34:29.717Z,-4.00
2022-12-18T16:37:04.819Z,-4.10
2022-12-18T16:39:34.338Z,-4.00
2022-12-18T16:42:03.906Z,-4.10
2022-12-18T16:44:33.977Z,-4.10
2022-12-18T16:47:03.076Z,-4.10
2022-12-18T16:49:30.589Z,-4.10
2022-12-18T16:51:57.465Z,-4.10
2022-12-18T16:54:24.974Z,-4.10
2022-12-18T16:56:52.260Z,-4.10
2022-12-18T16:59:19.873Z,-4.10
2022-12-18T17:01:47.407Z,-4.10
2022-12-18T17:04:14.997Z,-4.10
2022-12-18T17:06:43.788Z,-4.20
2022-12-18T17:09:18.523Z,-4.20
2022-12-18T17:11:45.361Z,-4.20
2022-12-18T17:14:15.778Z,-4.20
2022-12-18T17:16:42.911Z,-4.30
2022-12-18T17:19:15.304Z,-4.30
2022-12-18T17:21:45.417Z,-4.40
2022-12-18T17:24:12.453Z,-4.50
2022-12-18T17:26:39.651Z,-4.60
2022-12-18T17:29:06.699Z,-4.60
2022-12-18T17:31:34.506Z,-4.60
2022-12-18T17:34:05.126Z,-4.70
2022-12-18T17:36:32.401Z,-4.70
2022-12-18T17:39:02.082Z,-4.70
2022-12-18T17:41:30.646Z,-4.70
2022-12-18T17:44:02.662Z,-4.60
2022-12-18T17:46:31.372Z,-4.60
2022-12-18T17:48:59.458Z,-4.60
2022-12-18T17:51:27.084Z,-4.50
2022-12-18T17:53:54.116Z,-4.50
2022-12-18T17:56:23.318Z,-4.50
2022-12-18T17:58:50.903Z,-4.50
2022-12-18T18:01:20.745Z,-4.50
2022-12-18T18:03:50.349Z,-4.50
2022-12-18T18:06:23.596Z,-4.50
2022-12-18T18:08:52.118Z,-4.60
2022-12-18T18:11:39.600Z,-4.60
2022-12-18T18:14:18.905Z,-4.70
2022-12-18T18:16:50.890Z,-4.80
2022-12-18T18:19:23.041Z,-4.90
2022-12-18T18:21:52.535Z,-5.00
2022-12-18T18:24:23.575Z,-5.00
2022-12-18T18:26:50.529Z,-5.10
2022-12-18T18:29:20.591Z,-5.10
2022-12-18T18:31:48.531Z,-5.10
2022-12-18T18:34:24.612Z,-5.10
2022-12-18T18:36:51.527Z,-5.10
2022-12-18T18:39:18.768Z,-5.10
2022-12-18T18:41:48.311Z,-5.00
2022-12-18T18:44:16.581Z,-5.00
2022-12-18T18:46:43.497Z,-5.00
2022-12-18T18:49:10.501Z,-5.00
2022-12-18T18:51:40.270Z,-5.00
2022-12-18T18:54:07.398Z,-4.90
2022-12-18T18:56:56.708Z,-4.90
2022-12-18T18:59:23.087Z,-4.90
2022-12-18T19:01:59.939Z,-4.90
2022-12-18T19:04:31.167Z,-4.90
2022-12-18T19:07:07.127Z,-5.00
2022-12-18T19:09:36.401Z,-5.00
2022-12-18T19:12:23.448Z,-5.00
2022-12-18T19:14:50.270Z,-5.00
2022-12-18T19:17:17.122Z,-5.00
2022-12-18T19:19:44.219Z,-5.00
2022-12-18T19:22:11.611Z,-5.00
2022-12-18T19:24:38.724Z,-5.00
2022-12-18T19:27:05.522Z,-4.90
2022-12-18T19:29:32.475Z,-4.90
2022-12-18T19:31:59.621Z,-4.90
2022-12-18T19:34:26.857Z,-5.00
2022-12-18T19:36:59.295Z,-5.00
2022-12-18T19:39:26.417Z,-5.00
2022-12-18T19:41:53.377Z,-5.00
2022-12-18T19:44:21.128Z,-5.00
2022-12-18T19:46:51.504Z,-5.10
2022-12-18T19:49:21.597Z,-5.10
2022-12-18T19:51:50.168Z,-5.00
2022-12-18T19:54:17.907Z,-5.10
2022-12-18T19:56:45.441Z,-5.10
2022-12-18T19:59:12.672Z,-5.10
2022-12-18T20:01:40.190Z,-5.00
2022-12-18T20:04:07.161Z,-5.00
2022-12-18T20:06:45.186Z,-4.90
2022-12-18T20:09:12.048Z,-5.00
2022-12-18T20:11:41.481Z,-5.00
2022-12-18T20:14:10.271Z,-5.10
2022-12-18T20:16:37.899Z,-5.10
2022-12-18T20:19:05.472Z,-5.10
2022-12-18T20:21:32.829Z,-5.10
2022-12-18T20:24:01.227Z,-5.10
2022-12-18T20:26:28.286Z,-5.10
2022-12-18T20:28:55.602Z,-5.10
2022-12-18T20:31:23.303Z,-5.10
2022-12-18T20:33:51.111Z,-5.20
2022-12-18T20:36:22.491Z,-5.20
2022-12-18T20:38:51.943Z,-5.30
2022-12-18T20:41:23.239Z,-5.30
2022-12-18T20:43:50.460Z,-5.30
2022-12-18T20:46:18.218Z,-5.20
2022-12-18T20:48:45.535Z,-5.20
2022-12-18T20:51:17.040Z,-5.30
2022-12-18T20:53:44.649Z,-5.30
2022-12-18T20:56:21.940Z,-5.30
2022-12-18T20:58:55.111Z,-5.30
2022-12-18T21:01:26.940Z,-5.30
2022-12-18T21:03:54.471Z,-5.30
2022-12-18T21:06:24.031Z,-5.30
2022-12-18T21:08:50.838Z,-5.30
2022-12-18T21:11:40.709Z,-5.30
2022-12-18T21:14:14.421Z,-5.30
2022-12-18T21:16:43.815Z,-5.20
2022-12-18T21:19:21.328Z,-5.20
2022-12-18T21:21:52.290Z,-5.20
2022-12-18T21:24:19.957Z,-5.10
2022-12-18T21:26:48.384Z,-5.20
2022-12-18T21:29:21.433Z,-5.10
2022-12-18T21:31:48.634Z,-5.10
2022-12-18T21:34:19.765Z,-5.10
2022-12-18T21:36:47.446Z,-5.10
2022-12-18T21:39:14.842Z,-5.00
2022-12-18T21:42:00.890Z,-5.00
2022-12-18T21:44:30.561Z,-5.00
2022-12-18T21:47:15.152Z,-4.90
2022-12-18T21:49:49.569Z,-4.90
2022-12-18T21:52:17.188Z,-4.90
2022-12-18T21:54:44.155Z,-4.90
2022-12-18T21:57:13.414Z,-4.90
2022-12-18T21:59:42.595Z,-4.90
2022-12-18T22:02:16.357Z,-4.90
2022-12-18T22:04:44.520Z,-4.90
2022-12-18T22:07:13.142Z,-4.90
2022-12-18T22:09:41.474Z,-4.80
2022-12-18T22:12:11.505Z,-4.80
2022-12-18T22:14:38.393Z,-4.80
2022-12-18T22:17:05.356Z,-4.80
2022-12-18T22:19:32.391Z,-4.80
2022-12-18T22:22:00.484Z,-4.80
2022-12-18T22:24:29.176Z,-4.80
2022-12-18T22:27:01.646Z,-4.80
2022-12-18T22:29:48.658Z,-4.80
2022-12-18T22:32:18.921Z,-4.90
2022-12-18T22:35:04.541Z,-4.90
2022-12-18T22:37:33.114Z,-4.90
2022-12-18T22:39:59.951Z,-4.90
2022-12-18T22:42:31.605Z,-4.90
2022-12-18T22:45:00.404Z,-4.90
2022-12-18T22:47:30.348Z,-4.90
2022-12-18T22:49:58.484Z,-4.90
2022-12-18T22:52:25.777Z,-4.80
2022-12-18T22:54:54.238Z,-4.80
2022-12-18T22:57:22.863Z,-4.70
2022-12-18T22:59:50.684Z,-4.80
2022-12-18T23:02:19.681Z,-4.70
2022-12-18T23:04:47.713Z,-4.70
2022-12-18T23:07:18.264Z,-4.60
2022-12-18T23:09:45.518Z,-4.70
2022-12-18T23:12:16.546Z,-4.70
2022-12-18T23:14:43.650Z,-4.70
2022-12-18T23:17:11.006Z,-4.70
2022-12-18T23:19:37.882Z,-4.70
2022-12-18T23:22:10.094Z,-4.70
2022-12-18T23:24:38.889Z,-4.60
2022-12-18T23:27:05.761Z,-4.60
2022-12-18T23:29:38.966Z,-4.60
2022-12-18T23:32:06.361Z,-4.60
2022-12-18T23:34:33.325Z,-4.60
2022-12-18T23:37:01.139Z,-4.70
2022-12-18T23:39:29.793Z,-4.70
2022-12-18T23:41:58.640Z,-4.70
2022-12-18T23:44:25.973Z,-4.70
2022-12-18T23:46:53.062Z,-4.80
2022-12-18T23:49:20.130Z,-4.80
2022-12-18T23:51:47.118Z,-4.80
2022-12-18T23:54:14.028Z,-4.70
2022-12-18T23:56:41.036Z,-4.70
2022-12-18T23:59:08.030Z,-4.80
